createdAt,value
2022-09-01T00:01:06.565Z,10.50
2022-09-01T00:03:53.153Z,10.32
2022-09-01T00:06:41.118Z,10.40
2022-09-01T00:09:25.667Z,10.93
2022-09-01T00:12:10.999Z,10.93
2022-09-01T00:14:55.021Z,11.23
2022-09-01T00:17:39.334Z,11.10
2022-09-01T00:20:24.874Z,10.90
2022-09-01T00:23:08.921Z,10.82
2022-09-01T00:25:53.077Z,10.27
2022-09-01T00:28:37.782Z,11.32
2022-09-01T00:31:22.240Z,10.48
2022-09-01T00:34:06.627Z,10.88
2022-09-01T00:36:52.230Z,10.45
2022-09-01T00:39:36.364Z,10.25
2022-09-01T00:42:20.958Z,11.32
2022-09-01T00:45:05.936Z,10.68
2022-09-01T00:47:52.532Z,11.60
2022-09-01T00:50:39.108Z,10.88
2022-09-01T00:53:24.787Z,10.48
2022-09-01T00:56:08.907Z,10.27
2022-09-01T00:58:54.448Z,9.65
2022-09-01T01:01:38.896Z,10.02
2022-09-01T01:04:23.470Z,10.27
2022-09-01T01:07:09.609Z,10.00
2022-09-01T01:09:55.160Z,10.20
2022-09-01T01:12:40.567Z,10.23
2022-09-01T01:15:24.472Z,9.95
2022-09-01T01:18:08.530Z,9.40
2022-09-01T01:21:18.630Z,9.63
2022-09-01T01:24:07.934Z,9.30
2022-09-01T01:26:55.348Z,9.90
2022-09-01T01:29:40.142Z,9.55
2022-09-01T01:32:24.408Z,9.10
2022-09-01T01:35:14.763Z,9.52
2022-09-01T01:37:59.835Z,10.27
2022-09-01T01:40:43.878Z,9.35
2022-09-01T01:43:29.513Z,9.73
2022-09-01T01:46:14.610Z,8.95
2022-09-01T01:48:59.042Z,9.60
2022-09-01T01:51:43.487Z,9.63
2022-09-01T01:54:29.728Z,9.55
2022-09-01T01:57:17.970Z,9.38
2022-09-01T02:00:03.928Z,9.88
2022-09-01T02:02:57.356Z,9.80
2022-09-01T02:05:41.772Z,8.32
2022-09-01T02:08:27.703Z,8.63
2022-09-01T02:11:13.489Z,10.27
2022-09-01T02:13:58.021Z,9.55
2022-09-01T02:16:43.952Z,9.52
2022-09-01T02:19:28.150Z,8.45
2022-09-01T02:22:12.384Z,9.13
2022-09-01T02:24:57.709Z,8.70
2022-09-01T02:27:42.624Z,9.30
2022-09-01T02:30:27.918Z,10.48
2022-09-01T02:33:18.660Z,8.80
2022-09-01T02:36:10.409Z,9.90
2022-09-01T02:38:56.469Z,8.77
2022-09-01T02:41:41.380Z,10.05
2022-09-01T02:44:28.096Z,9.55
2022-09-01T02:47:12.802Z,9.55
2022-09-01T02:49:58.621Z,8.88
2022-09-01T02:52:42.430Z,9.35
2022-09-01T02:55:26.287Z,8.63
2022-09-01T02:58:16.444Z,10.27
2022-09-01T03:01:00.771Z,9.55
2022-09-01T03:03:46.714Z,9.30
2022-09-01T03:06:34.674Z,9.00
2022-09-01T03:09:20.957Z,8.88
2022-09-01T03:12:07.333Z,8.55
2022-09-01T03:14:52.408Z,8.55
2022-09-01T03:17:36.433Z,8.57
2022-09-01T03:20:21.826Z,9.48
2022-09-01T03:23:10.158Z,9.30
2022-09-01T03:25:55.103Z,8.55
2022-09-01T03:28:38.998Z,8.40
2022-09-01T03:31:23.049Z,9.05
2022-09-01T03:34:11.051Z,8.13
2022-09-01T03:36:59.991Z,7.53
2022-09-01T03:39:47.175Z,9.90
2022-09-01T03:42:34.307Z,9.20
2022-09-01T03:45:20.508Z,10.70
2022-09-01T03:48:09.321Z,8.93
2022-09-01T03:50:53.538Z,9.05
2022-09-01T03:53:40.032Z,7.97
2022-09-01T03:56:27.478Z,7.93
2022-09-01T03:59:17.289Z,7.88
2022-09-01T04:02:03.954Z,8.10
2022-09-01T04:04:47.976Z,8.20
2022-09-01T04:07:32.111Z,8.73
2022-09-01T04:10:17.694Z,8.65
2022-09-01T04:13:05.276Z,8.07
2022-09-01T04:15:49.362Z,9.15
2022-09-01T04:18:32.305Z,8.00
2022-09-01T04:21:15.923Z,7.65
2022-09-01T04:24:00.166Z,8.00
2022-09-01T04:26:46.125Z,8.52
2022-09-01T04:29:33.497Z,7.10
2022-09-01T04:32:21.693Z,7.82
2022-09-01T04:35:11.734Z,8.30
2022-09-01T04:37:55.955Z,7.53
2022-09-01T04:40:41.001Z,6.78
2022-09-01T04:43:26.060Z,6.30
2022-09-01T04:46:14.562Z,6.47
2022-09-01T04:48:59.735Z,6.30
2022-09-01T04:51:45.079Z,6.65
2022-09-01T04:54:28.986Z,6.55
2022-09-01T04:57:13.513Z,7.50
2022-09-01T04:59:58.636Z,6.70
2022-09-01T05:02:46.054Z,9.15
2022-09-01T05:05:39.434Z,7.57
2022-09-01T05:08:24.934Z,8.23
2022-09-01T05:11:17.915Z,9.00
2022-09-01T05:14:05.301Z,8.13
2022-09-01T05:16:50.090Z,7.15
2022-09-01T05:19:36.209Z,7.50
2022-09-01T05:22:22.351Z,8.82
2022-09-01T05:25:15.185Z,7.07
2022-09-01T05:28:02.583Z,8.23
2022-09-01T05:30:48.460Z,8.57
2022-09-01T05:33:32.407Z,7.82
2022-09-01T05:36:20.349Z,6.90
2022-09-01T05:39:06.430Z,6.10
2022-09-01T05:41:50.557Z,6.20
2022-09-01T05:44:36.138Z,5.80
2022-09-01T05:47:21.753Z,6.07
2022-09-01T05:50:14.260Z,6.50
2022-09-01T05:53:00.240Z,6.22
2022-09-01T05:55:46.761Z,5.97
2022-09-01T06:01:41.194Z,6.45
2022-09-01T06:04:26.994Z,5.82
2022-09-01T06:07:25.015Z,6.40
2022-09-01T06:10:13.056Z,6.20
2022-09-01T06:12:56.935Z,6.80
2022-09-01T06:15:41.781Z,5.82
2022-09-01T06:18:27.804Z,6.28
2022-09-01T06:21:15.412Z,5.95
2022-09-01T06:24:00.891Z,6.47
2022-09-01T06:26:46.946Z,6.60
2022-09-01T06:29:31.434Z,6.80
2022-09-01T06:32:17.094Z,6.60
2022-09-01T06:35:02.558Z,6.00
2022-09-01T06:37:49.723Z,7.78
2022-09-01T06:41:04.332Z,5.95
2022-09-01T06:43:52.698Z,6.30
2022-09-01T06:46:36.689Z,7.15
2022-09-01T06:49:32.632Z,6.30
2022-09-01T06:52:17.145Z,5.97
2022-09-01T06:55:05.740Z,5.97
2022-09-01T06:58:13.909Z,5.85
2022-09-01T07:01:08.148Z,6.38
2022-09-01T07:03:53.761Z,5.68
2022-09-01T07:07:53.223Z,5.80
2022-09-01T07:10:24.018Z,6.00
2022-09-01T07:13:21.613Z,7.47
2022-09-01T07:19:15.110Z,6.07
2022-09-01T07:25:22.187Z,6.63
2022-09-01T07:28:37.669Z,5.55
2022-09-01T07:34:38.877Z,6.95
2022-09-01T07:43:57.518Z,5.88
2022-09-01T07:47:19.997Z,6.13
2022-09-01T07:50:24.827Z,5.82
2022-09-01T07:53:11.460Z,5.88
2022-09-01T07:55:57.460Z,5.72
2022-09-01T07:58:42.431Z,5.25
2022-09-01T08:01:29.083Z,6.20
2022-09-01T08:04:15.212Z,5.80
2022-09-01T08:07:00.363Z,5.88
2022-09-01T08:09:45.407Z,5.60
2022-09-01T08:12:31.786Z,8.02
2022-09-01T08:18:21.441Z,6.47
2022-09-01T08:21:09.775Z,8.60
2022-09-01T08:24:12.689Z,6.07
2022-09-01T08:26:57.549Z,5.85
2022-09-01T08:29:41.540Z,6.18
2022-09-01T08:32:26.053Z,6.22
2022-09-01T08:35:11.631Z,7.20
2022-09-01T08:37:57.879Z,6.35
2022-09-01T08:40:44.413Z,5.85
2022-09-01T08:43:41.444Z,5.85
2022-09-01T08:46:30.969Z,6.28
2022-09-01T08:49:28.169Z,6.35
2022-09-01T08:52:31.794Z,6.00
2022-09-01T08:55:26.047Z,6.38
2022-09-01T08:58:12.253Z,5.50
2022-09-01T09:01:27.611Z,6.28
2022-09-01T09:04:25.868Z,6.13
2022-09-01T09:07:19.136Z,5.65
2022-09-01T09:10:12.242Z,5.32
2022-09-01T09:13:09.839Z,5.90
2022-09-01T09:16:14.038Z,5.88
2022-09-01T09:19:02.404Z,6.30
2022-09-01T09:21:48.317Z,6.20
2022-09-01T09:24:47.407Z,6.25
2022-09-01T09:27:34.080Z,5.72
2022-09-01T09:30:23.430Z,6.38
2022-09-01T09:33:46.832Z,5.68
2022-09-01T09:36:22.214Z,5.47
2022-09-01T09:39:12.877Z,7.25
2022-09-01T09:42:09.692Z,6.80
2022-09-01T09:44:57.698Z,6.35
2022-09-01T09:47:45.396Z,6.18
2022-09-01T09:50:31.991Z,5.93
2022-09-01T09:53:28.470Z,5.70
2022-09-01T09:56:21.272Z,5.85
2022-09-01T09:59:29.334Z,6.00
2022-09-01T10:02:32.201Z,6.05
2022-09-01T10:05:30.598Z,5.50
2022-09-01T10:08:37.564Z,6.22
2022-09-01T10:11:35.588Z,5.78
2022-09-01T10:14:35.517Z,5.82
2022-09-01T10:17:32.921Z,5.60
2022-09-01T10:20:22.475Z,5.70
2022-09-01T10:23:15.482Z,5.55
2022-09-01T10:26:06.450Z,5.70
2022-09-01T10:28:57.042Z,5.85
2022-09-01T10:31:42.300Z,5.78
2022-09-01T10:34:26.429Z,5.70
2022-09-01T10:37:16.146Z,6.07
2022-09-01T10:40:29.860Z,5.95
2022-09-01T10:43:28.528Z,6.00
2022-09-01T10:46:51.455Z,5.78
2022-09-01T10:50:01.457Z,6.78
2022-09-01T10:53:09.743Z,6.40
2022-09-01T10:56:19.232Z,6.47
2022-09-01T11:02:25.976Z,6.32
2022-09-01T11:05:17.260Z,7.45
2022-09-01T11:08:17.203Z,6.07
2022-09-01T11:11:12.215Z,6.82
2022-09-01T11:13:58.958Z,6.55
2022-09-01T11:16:47.941Z,6.82
2022-09-01T11:19:39.679Z,6.63
2022-09-01T11:22:29.779Z,6.72
2022-09-01T11:25:43.985Z,7.85
2022-09-01T11:28:47.663Z,6.15
2022-09-01T11:31:39.230Z,6.57
2022-09-01T11:34:26.559Z,6.15
2022-09-01T11:37:17.269Z,7.32
2022-09-01T11:40:03.846Z,6.20
2022-09-01T11:42:54.023Z,5.93
2022-09-01T11:45:52.127Z,6.43
2022-09-01T11:48:36.036Z,6.70
2022-09-01T11:51:21.516Z,7.97
2022-09-01T11:54:05.946Z,6.90
2022-09-01T11:56:49.962Z,7.15
2022-09-01T11:59:36.016Z,7.47
2022-09-01T12:02:23.502Z,8.20
2022-09-01T12:05:26.778Z,7.75
2022-09-01T12:08:15.612Z,6.95
2022-09-01T12:11:06.747Z,7.65
2022-09-01T12:13:57.553Z,7.38
2022-09-01T12:16:43.202Z,6.57
2022-09-01T12:19:32.444Z,7.07
2022-09-01T12:22:20.403Z,6.60
2022-09-01T12:25:04.829Z,6.97
2022-09-01T12:27:48.915Z,6.75
2022-09-01T12:30:35.584Z,6.97
2022-09-01T12:33:24.198Z,4.85
2022-09-01T12:36:25.560Z,5.68
2022-09-01T12:39:23.786Z,5.80
2022-09-01T12:42:11.780Z,7.60
2022-09-01T12:44:58.133Z,8.38
2022-09-01T12:47:52.137Z,12.20
2022-09-01T12:50:45.855Z,12.40
2022-09-01T12:53:36.534Z,12.13
2022-09-01T12:56:30.967Z,11.57
2022-09-01T12:59:17.860Z,13.75
2022-09-01T13:02:29.558Z,14.60
2022-09-01T13:05:33.571Z,12.32
2022-09-01T13:08:22.381Z,13.48
2022-09-01T13:11:11.270Z,14.88
2022-09-01T13:13:55.315Z,19.98
2022-09-01T13:16:39.200Z,16.27
2022-09-01T13:19:28.710Z,17.55
2022-09-01T13:22:14.531Z,11.20
2022-09-01T13:24:58.356Z,9.00
2022-09-01T13:27:44.516Z,7.75
2022-09-01T13:30:28.887Z,7.95
2022-09-01T13:33:20.895Z,6.35
2022-09-01T13:39:11.257Z,7.70
2022-09-01T13:41:55.018Z,10.40
2022-09-01T13:44:40.280Z,13.55
2022-09-01T13:47:29.190Z,13.68
2022-09-01T13:50:23.124Z,11.60
2022-09-01T13:53:08.072Z,10.57
2022-09-01T13:55:52.079Z,11.52
2022-09-01T13:58:36.176Z,11.60
2022-09-01T14:01:23.112Z,10.50
2022-09-01T14:04:07.825Z,10.98
2022-09-01T14:06:51.859Z,9.95
2022-09-01T14:09:36.768Z,10.05
2022-09-01T14:12:20.675Z,10.07
2022-09-01T14:15:16.035Z,9.70
2022-09-01T14:18:02.894Z,9.15
2022-09-01T14:20:48.836Z,9.68
2022-09-01T14:23:33.032Z,9.57
2022-09-01T14:26:17.806Z,9.90
2022-09-01T14:29:02.681Z,9.10
2022-09-01T14:31:46.437Z,10.10
2022-09-01T14:34:31.943Z,9.43
2022-09-01T14:37:15.895Z,9.88
2022-09-01T14:39:59.731Z,10.35
2022-09-01T14:42:46.647Z,10.40
2022-09-01T14:45:30.615Z,10.90
2022-09-01T14:48:15.827Z,9.55
2022-09-01T14:51:01.455Z,10.50
2022-09-01T14:53:45.390Z,11.73
2022-09-01T14:56:29.636Z,9.95
2022-09-01T14:59:13.616Z,9.50
2022-09-01T15:01:57.518Z,9.65
2022-09-01T15:04:42.429Z,9.07
2022-09-01T15:07:27.916Z,10.45
2022-09-01T15:10:16.175Z,8.30
2022-09-01T15:13:09.449Z,7.80
2022-09-01T15:15:53.334Z,7.93
2022-09-01T15:18:37.184Z,8.20
2022-09-01T15:21:22.748Z,8.32
2022-09-01T15:24:09.691Z,9.27
2022-09-01T15:26:53.477Z,7.68
2022-09-01T15:29:46.311Z,8.15
2022-09-01T15:32:30.106Z,7.97
2022-09-01T15:35:15.100Z,7.60
2022-09-01T15:37:59.444Z,8.02
2022-09-01T15:40:45.450Z,7.95
2022-09-01T15:43:38.114Z,8.30
2022-09-01T15:46:22.061Z,7.80
2022-09-01T15:49:07.702Z,8.45
2022-09-01T15:51:51.505Z,7.97
2022-09-01T15:54:39.690Z,7.93
2022-09-01T15:57:24.941Z,8.20
2022-09-01T16:00:11.443Z,7.90
2022-09-01T16:02:57.684Z,7.20
2022-09-01T16:05:42.145Z,7.80
2022-09-01T16:08:26.297Z,8.25
2022-09-01T16:11:12.257Z,9.05
2022-09-01T16:13:58.297Z,7.45
2022-09-01T16:16:56.527Z,7.95
2022-09-01T16:19:50.242Z,7.93
2022-09-01T16:22:38.199Z,7.78
2022-09-01T16:25:29.926Z,9.52
2022-09-01T16:28:25.669Z,9.18
2022-09-01T16:31:14.416Z,7.22
2022-09-01T16:34:02.185Z,7.75
2022-09-01T16:37:00.176Z,8.10
2022-09-01T16:39:48.330Z,7.80
2022-09-01T16:42:47.146Z,7.85
2022-09-01T16:45:43.201Z,8.73
2022-09-01T16:48:38.395Z,9.23
2022-09-01T16:51:31.851Z,7.80
2022-09-01T16:54:25.420Z,8.10
2022-09-01T16:57:16.978Z,7.03
2022-09-01T17:00:03.494Z,9.13
2022-09-01T17:03:00.060Z,10.07
2022-09-01T17:05:51.511Z,11.13
2022-09-01T17:08:46.173Z,12.00
2022-09-01T17:11:37.394Z,11.30
2022-09-01T17:14:27.919Z,12.68
2022-09-01T17:17:15.470Z,12.50
2022-09-01T17:20:00.087Z,15.10
2022-09-01T17:22:52.681Z,17.77
2022-09-01T17:25:41.883Z,13.45
2022-09-01T17:28:33.759Z,13.30
2022-09-01T17:31:27.615Z,10.05
2022-09-01T17:34:26.739Z,11.88
2022-09-01T17:37:20.675Z,8.23
2022-09-01T17:40:15.420Z,8.35
2022-09-01T17:43:05.318Z,7.70
2022-09-01T17:45:57.173Z,9.85
2022-09-01T17:48:50.034Z,8.43
2022-09-01T17:51:43.299Z,9.40
2022-09-01T17:54:37.233Z,8.07
2022-09-01T17:57:29.712Z,9.38
2022-09-01T18:00:24.364Z,11.98
2022-09-01T18:03:26.280Z,11.73
2022-09-01T18:06:16.479Z,10.50
2022-09-01T18:09:00.336Z,10.48
2022-09-01T18:11:52.322Z,9.80
2022-09-01T18:14:42.882Z,8.02
2022-09-01T18:17:31.522Z,7.53
2022-09-01T18:20:20.931Z,9.20
2022-09-01T18:23:07.197Z,10.23
2022-09-01T18:25:56.493Z,8.48
2022-09-01T18:28:42.070Z,8.57
2022-09-01T18:31:54.388Z,6.40
2022-09-01T18:34:52.813Z,6.68
2022-09-01T18:37:47.507Z,6.30
2022-09-01T18:40:36.083Z,6.10
2022-09-01T18:43:30.057Z,5.70
2022-09-01T18:46:26.433Z,5.85
2022-09-01T18:49:21.405Z,5.22
2022-09-01T18:52:21.018Z,5.78
2022-09-01T18:55:14.428Z,6.43
2022-09-01T18:58:03.441Z,5.80
2022-09-01T19:00:56.301Z,5.38
2022-09-01T19:03:49.310Z,5.32
2022-09-01T19:06:45.910Z,6.13
2022-09-01T19:09:33.437Z,6.10
2022-09-01T19:12:25.887Z,5.80
2022-09-01T19:15:21.104Z,7.07
2022-09-01T19:18:14.387Z,7.75
2022-09-01T19:21:05.110Z,7.00
2022-09-01T19:23:56.032Z,6.72
2022-09-01T19:26:43.305Z,6.40
2022-09-01T19:29:30.992Z,5.60
2022-09-01T19:32:19.482Z,6.47
2022-09-01T19:35:11.930Z,8.32
2022-09-01T19:37:55.887Z,8.68
2022-09-01T19:40:43.736Z,9.43
2022-09-01T19:43:35.084Z,8.68
2022-09-01T19:46:28.990Z,10.45
2022-09-01T19:49:24.001Z,10.82
2022-09-01T19:52:11.987Z,7.55
2022-09-01T19:55:03.121Z,6.35
2022-09-01T19:57:55.690Z,7.43
2022-09-01T20:00:53.454Z,7.22
2022-09-01T20:03:40.379Z,8.85
2022-09-01T20:06:33.637Z,11.35
2022-09-01T20:09:22.418Z,10.02
2022-09-01T20:12:18.340Z,9.55
2022-09-01T20:15:13.897Z,11.00
2022-09-01T20:18:00.677Z,11.38
2022-09-01T20:20:48.632Z,11.95
2022-09-01T20:23:38.393Z,9.77
2022-09-01T20:26:32.108Z,10.10
2022-09-01T20:29:22.656Z,8.43
2022-09-01T20:32:09.487Z,11.88
2022-09-01T20:34:58.939Z,14.18
2022-09-01T20:37:47.443Z,18.10
2022-09-01T20:40:35.817Z,14.13
2022-09-01T20:43:23.765Z,11.40
2022-09-01T20:46:07.705Z,10.38
2022-09-01T20:48:54.325Z,6.90
2022-09-01T20:51:44.223Z,6.20
2022-09-01T20:54:36.024Z,6.63
2022-09-01T20:57:34.465Z,5.57
2022-09-01T21:00:23.176Z,5.45
2022-09-01T21:03:13.989Z,6.15
2022-09-01T21:06:07.209Z,6.20
2022-09-01T21:08:59.108Z,6.47
2022-09-01T21:11:49.465Z,5.53
2022-09-01T21:14:44.324Z,5.60
2022-09-01T21:17:38.514Z,6.00
2022-09-01T21:20:32.843Z,6.68
2022-09-01T21:23:20.327Z,6.15
2022-09-01T21:26:04.523Z,5.50
2022-09-01T21:28:56.180Z,5.40
2022-09-01T21:31:40.326Z,5.72
2022-09-01T21:34:24.329Z,5.75
2022-09-01T21:37:08.438Z,6.20
2022-09-01T21:39:55.293Z,5.85
2022-09-01T21:42:42.427Z,6.05
2022-09-01T21:45:27.121Z,6.40
2022-09-01T21:48:11.882Z,6.20
2022-09-01T21:50:55.871Z,5.72
2022-09-01T21:53:39.775Z,6.28
2022-09-01T21:56:26.048Z,5.55
2022-09-01T21:59:12.115Z,5.68
2022-09-01T22:01:56.328Z,5.70
2022-09-01T22:04:40.398Z,5.28
2022-09-01T22:07:24.256Z,5.70
2022-09-01T22:10:10.534Z,5.80
2022-09-01T22:12:57.190Z,5.43
2022-09-01T22:15:44.233Z,6.20
2022-09-01T22:18:28.197Z,5.68
2022-09-01T22:21:13.214Z,5.55
2022-09-01T22:23:57.028Z,5.88
2022-09-01T22:26:40.946Z,5.50
2022-09-01T22:29:26.439Z,5.63
2022-09-01T22:32:10.431Z,5.78
2022-09-01T22:34:54.329Z,6.28
2022-09-01T22:37:39.446Z,6.22
2022-09-01T22:40:23.382Z,5.97
2022-09-01T22:43:07.295Z,6.00
2022-09-01T22:45:53.318Z,5.90
2022-09-01T22:48:37.291Z,6.32
2022-09-01T22:51:21.362Z,7.50
2022-09-01T22:54:06.430Z,11.32
2022-09-01T22:56:52.574Z,11.73
2022-09-01T22:59:41.838Z,13.05
2022-09-01T23:02:27.295Z,11.07
2022-09-01T23:05:11.532Z,8.57
2022-09-01T23:07:55.472Z,7.85
2022-09-01T23:10:39.370Z,6.63
2022-09-01T23:13:23.422Z,7.32
2022-09-01T23:16:09.802Z,7.53
2022-09-01T23:18:55.909Z,12.80
2022-09-01T23:21:40.034Z,10.25
2022-09-01T23:24:24.071Z,9.85
2022-09-01T23:27:07.991Z,9.00
2022-09-01T23:29:54.212Z,10.38
2022-09-01T23:32:38.577Z,9.15
2022-09-01T23:35:24.285Z,7.32
2022-09-01T23:38:08.721Z,6.65
2022-09-01T23:40:54.629Z,7.28
2022-09-01T23:43:39.331Z,6.50
2022-09-01T23:46:26.367Z,6.88
2022-09-01T23:49:11.609Z,6.50
2022-09-01T23:51:56.970Z,6.45
2022-09-01T23:54:40.795Z,6.30
2022-09-01T23:57:24.960Z,6.47
